createdAt,value
2023-04-26T00:02:09.788Z,3.30
2023-04-26T00:04:40.225Z,3.50
2023-04-26T00:07:10.366Z,3.40
2023-04-26T00:09:41.927Z,3.78
2023-04-26T00:12:12.397Z,4.25
2023-04-26T00:14:42.196Z,3.92
2023-04-26T00:17:12.189Z,3.80
2023-04-26T00:19:42.227Z,3.70
2023-04-26T00:22:17.892Z,3.83
2023-04-26T00:24:46.376Z,3.92
2023-04-26T00:27:22.550Z,3.45
2023-04-26T00:29:53.327Z,3.63
2023-04-26T00:32:24.317Z,4.22
2023-04-26T00:35:00.600Z,3.63
2023-04-26T00:37:33.145Z,3.55
2023-04-26T00:40:01.656Z,3.30
2023-04-26T00:42:30.379Z,3.03
2023-04-26T00:44:58.903Z,3.17
2023-04-26T00:47:31.688Z,3.45
2023-04-26T00:50:04.241Z,3.80
2023-04-26T00:52:33.761Z,2.95
2023-04-26T00:55:02.223Z,3.42
2023-04-26T00:57:32.001Z,3.17
2023-04-26T01:00:00.431Z,3.10
2023-04-26T01:02:30.262Z,3.13
2023-04-26T01:05:09.521Z,3.00
2023-04-26T01:07:40.389Z,3.38
2023-04-26T01:10:11.773Z,3.17
2023-04-26T01:12:40.851Z,3.20
2023-04-26T01:15:11.619Z,3.00
2023-04-26T01:17:44.936Z,2.97
2023-04-26T01:20:15.614Z,3.28
2023-04-26T01:22:47.105Z,3.20
2023-04-26T01:25:17.635Z,3.00
2023-04-26T01:27:47.116Z,3.10
2023-04-26T01:30:15.753Z,3.13
2023-04-26T01:32:45.282Z,2.72
2023-04-26T01:35:13.824Z,2.65
2023-04-26T01:37:42.726Z,3.20
2023-04-26T01:40:13.772Z,3.20
2023-04-26T01:42:42.384Z,3.45
2023-04-26T01:45:11.915Z,3.00
2023-04-26T01:47:40.578Z,2.95
2023-04-26T01:50:11.190Z,2.88
2023-04-26T01:52:41.142Z,3.10
2023-04-26T01:55:17.918Z,3.08
2023-04-26T01:57:48.705Z,3.22
2023-04-26T02:00:42.154Z,2.80
2023-04-26T02:03:13.087Z,3.25
2023-04-26T02:05:43.280Z,3.08
2023-04-26T02:08:12.175Z,2.85
2023-04-26T02:10:46.830Z,3.35
2023-04-26T02:13:17.538Z,3.17
2023-04-26T02:15:49.333Z,3.25
2023-04-26T02:18:22.167Z,3.30
2023-04-26T02:20:57.993Z,3.10
2023-04-26T02:23:26.803Z,3.28
2023-04-26T02:25:57.001Z,3.25
2023-04-26T02:28:25.866Z,3.10
2023-04-26T02:30:57.067Z,3.13
2023-04-26T02:33:26.366Z,3.35
2023-04-26T02:35:56.055Z,3.15
2023-04-26T02:38:27.607Z,3.55
2023-04-26T02:41:01.568Z,3.33
2023-04-26T02:43:35.816Z,3.15
2023-04-26T02:46:22.786Z,3.28
2023-04-26T02:48:53.251Z,3.20
2023-04-26T02:51:30.678Z,3.10
2023-04-26T02:54:01.504Z,3.22
2023-04-26T02:56:32.015Z,3.17
2023-04-26T02:59:07.320Z,2.78
2023-04-26T03:01:35.928Z,3.45
2023-04-26T03:04:05.698Z,3.35
2023-04-26T03:06:35.584Z,3.15
2023-04-26T03:09:05.972Z,3.00
2023-04-26T03:11:36.104Z,2.80
2023-04-26T03:14:04.611Z,3.25
2023-04-26T03:16:33.268Z,3.05
2023-04-26T03:19:02.410Z,2.90
2023-04-26T03:21:32.309Z,3.17
2023-04-26T03:24:01.118Z,3.08
2023-04-26T03:26:30.765Z,3.30
2023-04-26T03:29:00.999Z,3.10
2023-04-26T03:31:31.813Z,3.78
2023-04-26T03:34:00.444Z,3.35
2023-04-26T03:36:29.993Z,3.00
2023-04-26T03:39:03.354Z,2.85
2023-04-26T03:41:33.597Z,3.20
2023-04-26T03:44:06.362Z,3.47
2023-04-26T03:46:34.712Z,3.67
2023-04-26T03:49:03.321Z,3.50
2023-04-26T03:51:31.954Z,3.70
2023-04-26T03:54:01.649Z,2.95
2023-04-26T03:56:30.368Z,3.50
2023-04-26T03:58:59.848Z,3.95
2023-04-26T04:01:30.154Z,3.85
2023-04-26T04:04:05.037Z,3.30
2023-04-26T04:06:33.851Z,3.88
2023-04-26T04:09:05.782Z,3.60
2023-04-26T04:11:35.139Z,3.50
2023-04-26T04:14:04.497Z,3.60
2023-04-26T04:16:37.088Z,3.97
2023-04-26T04:19:05.704Z,3.60
2023-04-26T04:21:35.461Z,3.70
2023-04-26T04:24:05.884Z,3.53
2023-04-26T04:26:34.598Z,3.72
2023-04-26T04:29:09.296Z,3.80
2023-04-26T04:31:41.928Z,3.90
2023-04-26T04:34:12.077Z,3.72
2023-04-26T04:36:41.039Z,3.85
2023-04-26T04:39:13.903Z,4.55
2023-04-26T04:41:47.907Z,3.80
2023-04-26T04:44:19.824Z,3.75
2023-04-26T04:46:53.069Z,3.38
2023-04-26T04:49:21.659Z,3.58
2023-04-26T04:51:51.414Z,4.32
2023-04-26T04:54:25.830Z,3.80
2023-04-26T04:56:55.378Z,4.20
2023-04-26T04:59:26.349Z,4.20
2023-04-26T05:01:57.590Z,3.90
2023-04-26T05:04:26.445Z,4.30
2023-04-26T05:06:56.920Z,4.15
2023-04-26T05:09:25.580Z,4.18
2023-04-26T05:12:00.376Z,4.38
2023-04-26T05:14:31.613Z,4.40
2023-04-26T05:17:02.770Z,4.15
2023-04-26T05:19:31.308Z,4.45
2023-04-26T05:21:59.754Z,4.43
2023-04-26T05:24:31.694Z,4.72
2023-04-26T05:27:00.188Z,4.45
2023-04-26T05:29:43.098Z,4.60
2023-04-26T05:32:15.314Z,4.20
2023-04-26T05:34:44.824Z,4.80
2023-04-26T05:37:13.399Z,4.95
2023-04-26T05:39:41.931Z,4.80
2023-04-26T05:42:10.693Z,5.25
2023-04-26T05:44:39.420Z,4.72
2023-04-26T05:47:08.050Z,5.35
2023-04-26T05:49:38.521Z,5.00
2023-04-26T05:52:09.349Z,5.00
2023-04-26T05:54:38.071Z,5.22
2023-04-26T05:57:06.646Z,4.93
2023-04-26T05:59:38.099Z,4.80
2023-04-26T06:02:08.165Z,4.70
2023-04-26T06:04:38.283Z,4.93
2023-04-26T06:07:08.484Z,5.13
2023-04-26T06:09:43.224Z,5.53
2023-04-26T06:12:11.917Z,5.57
2023-04-26T06:14:40.209Z,5.45
2023-04-26T06:17:08.933Z,6.15
2023-04-26T06:19:39.281Z,5.72
2023-04-26T06:22:08.875Z,5.78
2023-04-26T06:24:37.472Z,5.65
2023-04-26T06:27:05.763Z,5.95
2023-04-26T06:29:34.988Z,5.97
2023-04-26T06:32:03.896Z,6.35
2023-04-26T06:34:32.220Z,6.38
2023-04-26T06:37:02.603Z,6.20
2023-04-26T06:39:31.162Z,6.40
2023-04-26T06:42:00.295Z,5.80
2023-04-26T06:44:30.982Z,6.32
2023-04-26T06:46:59.758Z,6.57
2023-04-26T06:49:28.146Z,5.90
2023-04-26T06:51:56.785Z,6.30
2023-04-26T06:54:30.119Z,5.97
2023-04-26T06:56:59.442Z,5.18
2023-04-26T06:59:30.025Z,4.75
2023-04-26T07:01:58.935Z,4.28
2023-04-26T07:04:27.844Z,4.43
2023-04-26T07:06:58.049Z,4.53
2023-04-26T07:09:29.005Z,4.80
2023-04-26T07:11:57.458Z,4.43
2023-04-26T07:14:26.836Z,4.47
2023-04-26T07:16:55.598Z,4.40
2023-04-26T07:19:24.387Z,4.43
2023-04-26T07:21:53.154Z,4.03
2023-04-26T07:24:21.911Z,3.67
2023-04-26T07:26:52.991Z,3.80
2023-04-26T07:29:22.575Z,4.30
2023-04-26T07:31:54.778Z,3.67
2023-04-26T07:34:23.660Z,3.60
2023-04-26T07:36:52.517Z,4.30
2023-04-26T07:39:21.177Z,3.75
2023-04-26T07:41:49.881Z,3.90
2023-04-26T07:44:20.070Z,4.10
2023-04-26T07:46:48.520Z,3.55
2023-04-26T07:49:16.949Z,3.83
2023-04-26T07:51:45.891Z,3.90
2023-04-26T07:54:14.273Z,3.47
2023-04-26T07:56:43.442Z,3.75
2023-04-26T07:59:12.268Z,3.55
2023-04-26T08:01:42.508Z,3.65
2023-04-26T08:04:11.728Z,3.28
2023-04-26T08:06:45.122Z,3.30
2023-04-26T08:09:13.634Z,3.08
2023-04-26T08:11:42.267Z,2.95
2023-04-26T08:14:10.984Z,3.20
2023-04-26T08:16:39.551Z,3.25
2023-04-26T08:19:09.723Z,3.35
2023-04-26T08:21:39.177Z,3.90
2023-04-26T08:24:09.029Z,2.92
2023-04-26T08:26:37.514Z,3.28
2023-04-26T08:29:05.813Z,2.97
2023-04-26T08:31:34.656Z,3.20
2023-04-26T08:34:03.229Z,2.80
2023-04-26T08:36:35.267Z,2.95
2023-04-26T08:39:05.638Z,3.70
2023-04-26T08:41:38.779Z,3.10
2023-04-26T08:44:08.928Z,2.97
2023-04-26T08:46:46.236Z,3.47
2023-04-26T08:49:24.458Z,3.17
2023-04-26T08:51:57.004Z,3.50
2023-04-26T08:54:27.955Z,3.25
2023-04-26T08:57:00.743Z,3.20
2023-04-26T08:59:31.564Z,3.15
2023-04-26T09:02:03.204Z,3.22
2023-04-26T09:04:32.038Z,3.28
2023-04-26T09:07:03.545Z,4.00
2023-04-26T09:09:38.377Z,3.10
2023-04-26T09:12:07.108Z,3.08
2023-04-26T09:14:35.717Z,3.22
2023-04-26T09:17:04.121Z,3.30
2023-04-26T09:19:37.970Z,3.05
2023-04-26T09:22:09.143Z,3.10
2023-04-26T09:24:50.729Z,3.33
2023-04-26T09:27:19.413Z,3.05
2023-04-26T09:30:03.420Z,3.10
2023-04-26T09:32:46.050Z,3.03
2023-04-26T09:35:27.322Z,3.20
2023-04-26T09:38:08.610Z,2.67
2023-04-26T09:40:41.188Z,3.00
2023-04-26T09:43:11.805Z,2.83
2023-04-26T09:45:50.704Z,3.33
2023-04-26T09:48:23.076Z,3.30
2023-04-26T09:50:53.804Z,3.22
2023-04-26T09:53:34.650Z,2.97
2023-04-26T09:56:11.780Z,3.22
2023-04-26T09:58:42.351Z,2.72
2023-04-26T10:01:12.647Z,3.25
2023-04-26T10:03:43.201Z,3.10
2023-04-26T10:06:14.160Z,3.10
2023-04-26T10:08:44.777Z,3.33
2023-04-26T10:11:14.367Z,3.10
2023-04-26T10:13:45.168Z,3.40
2023-04-26T10:16:13.628Z,3.00
2023-04-26T10:18:42.336Z,3.17
2023-04-26T10:21:14.767Z,3.55
2023-04-26T10:23:45.612Z,3.40
2023-04-26T10:26:47.343Z,3.58
2023-04-26T10:29:15.808Z,3.30
2023-04-26T10:32:17.168Z,3.58
2023-04-26T10:34:46.186Z,2.88
2023-04-26T10:37:16.336Z,3.13
2023-04-26T10:39:47.619Z,2.88
2023-04-26T10:42:24.212Z,3.40
2023-04-26T10:44:54.782Z,3.00
2023-04-26T10:47:26.917Z,2.70
2023-04-26T10:50:05.694Z,3.20
2023-04-26T10:52:35.409Z,3.10
2023-04-26T10:55:06.596Z,3.45
2023-04-26T10:57:54.535Z,3.30
2023-04-26T11:00:31.998Z,3.25
2023-04-26T11:03:13.116Z,2.92
2023-04-26T11:05:56.913Z,3.10
2023-04-26T11:08:27.646Z,3.05
2023-04-26T11:11:13.798Z,2.90
2023-04-26T11:13:44.845Z,3.42
2023-04-26T11:16:14.681Z,3.03
2023-04-26T11:18:45.487Z,2.90
2023-04-26T11:21:18.366Z,3.30
2023-04-26T11:23:55.970Z,3.15
2023-04-26T11:26:34.531Z,3.30
2023-04-26T11:29:03.820Z,2.88
2023-04-26T11:31:32.390Z,2.75
2023-04-26T11:34:05.655Z,2.85
2023-04-26T11:36:34.485Z,3.35
2023-04-26T11:39:04.580Z,3.08
2023-04-26T11:41:34.619Z,3.15
2023-04-26T11:44:03.167Z,3.22
2023-04-26T11:46:32.394Z,3.53
2023-04-26T11:49:01.772Z,2.80
2023-04-26T11:51:32.211Z,2.70
2023-04-26T11:54:03.803Z,2.95
2023-04-26T11:56:33.906Z,3.08
2023-04-26T11:59:03.195Z,3.05
2023-04-26T12:01:32.044Z,2.50
2023-04-26T12:04:01.615Z,2.90
2023-04-26T12:06:43.019Z,2.50
2023-04-26T12:09:11.841Z,2.70
2023-04-26T12:11:42.100Z,2.88
2023-04-26T12:14:11.929Z,2.90
2023-04-26T12:16:40.560Z,2.67
2023-04-26T12:19:11.655Z,2.90
2023-04-26T12:21:43.976Z,2.50
2023-04-26T12:24:26.107Z,2.60
2023-04-26T12:26:56.408Z,2.65
2023-04-26T12:29:25.406Z,2.80
2023-04-26T12:31:54.170Z,2.75
2023-04-26T12:34:22.828Z,2.42
2023-04-26T12:36:52.213Z,2.65
2023-04-26T12:39:21.087Z,2.58
2023-04-26T12:41:50.216Z,2.60
2023-04-26T12:44:22.067Z,2.40
2023-04-26T12:46:51.405Z,2.67
2023-04-26T12:49:20.609Z,2.60
2023-04-26T12:51:50.027Z,2.45
2023-04-26T12:54:18.466Z,2.70
2023-04-26T12:56:48.456Z,2.70
2023-04-26T12:59:18.032Z,2.55
2023-04-26T13:01:48.250Z,2.20
2023-04-26T13:04:17.565Z,2.88
2023-04-26T13:06:46.345Z,2.80
2023-04-26T13:09:15.413Z,2.40
2023-04-26T13:11:43.825Z,2.80
2023-04-26T13:14:12.211Z,2.95
2023-04-26T13:16:44.062Z,2.60
2023-04-26T13:19:14.819Z,2.85
2023-04-26T13:21:43.809Z,3.00
2023-04-26T13:24:12.496Z,2.80
2023-04-26T13:26:41.040Z,3.20
2023-04-26T13:29:10.284Z,2.90
2023-04-26T13:31:41.035Z,2.92
2023-04-26T13:34:13.293Z,2.75
2023-04-26T13:36:43.422Z,3.00
2023-04-26T13:39:11.914Z,2.83
2023-04-26T13:41:40.481Z,3.00
2023-04-26T13:44:10.002Z,2.92
2023-04-26T13:46:39.152Z,3.15
2023-04-26T13:49:08.588Z,2.50
2023-04-26T13:51:38.182Z,2.50
2023-04-26T13:54:08.557Z,3.00
2023-04-26T13:56:37.291Z,2.83
2023-04-26T13:59:08.151Z,3.10
2023-04-26T14:01:37.883Z,3.30
2023-04-26T14:04:07.700Z,2.65
2023-04-26T14:06:36.603Z,3.17
2023-04-26T14:09:07.131Z,3.15
2023-04-26T14:11:37.578Z,3.20
2023-04-26T14:14:06.650Z,3.03
2023-04-26T14:16:35.566Z,3.03
2023-04-26T14:19:05.433Z,3.15
2023-04-26T14:21:33.788Z,3.17
2023-04-26T14:24:02.576Z,2.97
2023-04-26T14:26:31.731Z,2.35
2023-04-26T14:29:02.488Z,2.60
2023-04-26T14:31:33.041Z,2.58
2023-04-26T14:34:01.962Z,2.47
2023-04-26T14:36:30.560Z,2.50
2023-04-26T14:38:59.053Z,2.50
2023-04-26T14:41:30.014Z,2.38
2023-04-26T14:43:58.462Z,2.22
2023-04-26T14:46:29.130Z,2.80
2023-04-26T14:48:57.553Z,2.83
2023-04-26T14:51:26.464Z,2.53
2023-04-26T14:53:55.237Z,3.25
2023-04-26T14:56:24.276Z,2.90
2023-04-26T14:58:55.560Z,2.78
2023-04-26T15:01:23.980Z,3.00
2023-04-26T15:03:54.324Z,3.10
2023-04-26T15:06:24.102Z,2.70
2023-04-26T15:08:52.920Z,3.17
2023-04-26T15:11:21.552Z,2.92
2023-04-26T15:13:50.719Z,2.90
2023-04-26T15:16:20.072Z,2.95
2023-04-26T15:18:48.588Z,3.20
2023-04-26T15:21:22.607Z,2.70
2023-04-26T15:23:51.362Z,2.75
2023-04-26T15:26:20.048Z,3.17
2023-04-26T15:28:48.849Z,2.70
2023-04-26T15:31:18.615Z,3.30
2023-04-26T15:33:47.301Z,3.00
2023-04-26T15:36:16.557Z,3.13
2023-04-26T15:38:48.745Z,3.55
2023-04-26T15:41:17.254Z,2.80
2023-04-26T15:43:46.338Z,3.40
2023-04-26T15:46:16.166Z,3.08
2023-04-26T15:48:44.760Z,2.80
2023-04-26T15:51:13.398Z,3.15
2023-04-26T15:53:44.150Z,3.38
2023-04-26T15:56:18.549Z,3.00
2023-04-26T15:58:47.428Z,3.00
2023-04-26T16:01:16.337Z,3.10
2023-04-26T16:03:47.433Z,2.78
2023-04-26T16:06:16.638Z,2.88
2023-04-26T16:08:46.169Z,2.80
2023-04-26T16:11:14.663Z,2.78
2023-04-26T16:13:44.909Z,2.85
2023-04-26T16:16:14.025Z,2.80
2023-04-26T16:18:44.414Z,2.80
2023-04-26T16:21:13.768Z,2.97
2023-04-26T16:23:43.053Z,2.97
2023-04-26T16:26:12.339Z,3.15
2023-04-26T16:28:41.232Z,3.15
2023-04-26T16:31:12.271Z,2.85
2023-04-26T16:33:40.780Z,2.88
2023-04-26T16:36:11.508Z,3.30
2023-04-26T16:38:40.041Z,2.50
2023-04-26T16:41:09.586Z,2.90
2023-04-26T16:43:38.334Z,2.72
2023-04-26T16:46:14.536Z,2.90
2023-04-26T16:48:44.011Z,2.72
2023-04-26T16:51:13.180Z,3.40
2023-04-26T16:53:41.745Z,3.10
2023-04-26T16:56:13.839Z,3.38
2023-04-26T16:58:50.900Z,2.95
2023-04-26T17:01:22.932Z,3.10
2023-04-26T17:03:52.244Z,3.10
2023-04-26T17:06:21.223Z,2.60
2023-04-26T17:08:50.337Z,3.45
2023-04-26T17:11:19.940Z,3.20
2023-04-26T17:13:48.737Z,2.90
2023-04-26T17:16:17.196Z,3.45
2023-04-26T17:18:48.871Z,3.30
2023-04-26T17:21:18.709Z,3.60
2023-04-26T17:23:47.368Z,3.25
2023-04-26T17:26:18.254Z,3.20
2023-04-26T17:28:47.182Z,3.30
2023-04-26T17:31:15.586Z,3.22
2023-04-26T17:33:44.320Z,3.40
2023-04-26T17:36:15.561Z,3.28
2023-04-26T17:38:50.148Z,3.67
2023-04-26T17:41:18.770Z,4.07
2023-04-26T17:43:47.443Z,3.97
2023-04-26T17:46:16.002Z,3.45
2023-04-26T17:48:44.630Z,3.50
2023-04-26T17:51:14.634Z,3.70
2023-04-26T17:53:43.072Z,3.30
2023-04-26T17:56:18.771Z,3.97
2023-04-26T17:58:47.141Z,3.10
2023-04-26T18:01:16.184Z,3.15
2023-04-26T18:03:44.921Z,3.10
2023-04-26T18:06:15.240Z,3.15
2023-04-26T18:08:44.051Z,2.95
2023-04-26T18:11:16.218Z,3.40
2023-04-26T18:13:44.492Z,3.13
2023-04-26T18:16:15.197Z,3.05
2023-04-26T18:18:43.568Z,3.20
2023-04-26T18:21:14.473Z,3.00
2023-04-26T18:23:43.477Z,3.42
2023-04-26T18:26:12.168Z,3.38
2023-04-26T18:28:41.046Z,3.30
2023-04-26T18:31:12.334Z,3.67
2023-04-26T18:33:44.093Z,3.10
2023-04-26T18:36:12.665Z,3.42
2023-04-26T18:38:42.589Z,3.53
2023-04-26T18:41:13.557Z,3.08
2023-04-26T18:43:42.048Z,3.67
2023-04-26T18:46:10.316Z,3.50
2023-04-26T18:48:39.118Z,3.25
2023-04-26T18:51:07.726Z,3.60
2023-04-26T18:53:36.304Z,3.97
2023-04-26T18:56:06.801Z,3.97
2023-04-26T18:58:36.385Z,3.60
2023-04-26T19:01:05.187Z,3.33
2023-04-26T19:03:33.775Z,3.70
2023-04-26T19:06:02.574Z,3.50
2023-04-26T19:08:31.283Z,3.55
2023-04-26T19:10:59.709Z,3.83
2023-04-26T19:13:29.636Z,3.30
2023-04-26T19:15:58.148Z,3.75
2023-04-26T19:18:27.294Z,3.47
2023-04-26T19:20:56.101Z,4.20
2023-04-26T19:23:24.567Z,4.13
2023-04-26T19:25:52.904Z,4.20
2023-04-26T19:28:21.538Z,4.30
2023-04-26T19:30:51.574Z,4.35
2023-04-26T19:33:20.129Z,4.82
2023-04-26T19:35:48.455Z,4.70
2023-04-26T19:38:17.940Z,4.22
2023-04-26T19:40:46.843Z,4.28
2023-04-26T19:43:17.414Z,4.88
2023-04-26T19:45:45.791Z,4.38
2023-04-26T19:48:15.522Z,4.47
2023-04-26T19:50:45.258Z,4.80
2023-04-26T19:53:14.118Z,4.93
2023-04-26T19:55:44.256Z,4.75
2023-04-26T19:58:12.974Z,4.55
2023-04-26T20:00:41.707Z,4.57
2023-04-26T20:03:10.397Z,4.50
2023-04-26T20:05:40.634Z,5.13
2023-04-26T20:08:09.496Z,4.85
2023-04-26T20:10:37.947Z,4.90
2023-04-26T20:13:06.243Z,5.97
2023-04-26T20:15:34.867Z,5.40
2023-04-26T20:18:04.882Z,5.07
2023-04-26T20:20:33.837Z,5.28
2023-04-26T20:23:04.418Z,5.18
2023-04-26T20:25:36.964Z,5.22
2023-04-26T20:28:05.865Z,5.57
2023-04-26T20:30:35.828Z,5.40
2023-04-26T20:33:04.574Z,5.45
2023-04-26T20:35:33.423Z,5.40
2023-04-26T20:38:01.758Z,5.57
2023-04-26T20:40:32.063Z,4.75
2023-04-26T20:43:01.201Z,4.78
2023-04-26T20:45:29.753Z,5.38
2023-04-26T20:47:59.286Z,5.50
2023-04-26T20:50:28.859Z,5.47
2023-04-26T20:52:59.306Z,5.25
2023-04-26T20:55:27.822Z,4.70
2023-04-26T20:57:57.566Z,4.63
2023-04-26T21:00:30.842Z,4.68
2023-04-26T21:03:00.528Z,5.03
2023-04-26T21:05:29.267Z,4.70
2023-04-26T21:07:57.802Z,4.75
2023-04-26T21:10:28.618Z,5.03
2023-04-26T21:12:59.394Z,5.05
2023-04-26T21:15:27.949Z,5.10
2023-04-26T21:17:57.584Z,4.78
2023-04-26T21:20:25.995Z,4.85
2023-04-26T21:22:55.336Z,4.63
2023-04-26T21:25:36.386Z,4.15
2023-04-26T21:28:07.397Z,4.43
2023-04-26T21:30:36.855Z,4.50
2023-04-26T21:33:05.528Z,3.88
2023-04-26T21:35:34.481Z,4.10
2023-04-26T21:38:03.832Z,4.05
2023-04-26T21:40:32.244Z,4.60
2023-04-26T21:43:05.233Z,4.47
2023-04-26T21:45:35.988Z,4.32
2023-04-26T21:48:07.304Z,4.55
2023-04-26T21:50:37.059Z,4.60
2023-04-26T21:53:08.452Z,4.53
2023-04-26T21:55:38.196Z,5.00
2023-04-26T21:58:08.797Z,5.00
2023-04-26T22:00:39.081Z,4.90
2023-04-26T22:03:07.922Z,5.32
2023-04-26T22:05:38.104Z,4.70
2023-04-26T22:08:06.983Z,5.13
2023-04-26T22:10:36.968Z,4.97
2023-04-26T22:13:06.773Z,4.97
2023-04-26T22:15:38.814Z,4.93
2023-04-26T22:18:07.410Z,5.10
2023-04-26T22:20:36.730Z,5.00
2023-04-26T22:23:05.675Z,5.03
2023-04-26T22:25:34.316Z,5.18
2023-04-26T22:28:03.096Z,4.70
2023-04-26T22:30:31.941Z,5.10
2023-04-26T22:33:02.222Z,4.85
2023-04-26T22:35:32.086Z,4.93
2023-04-26T22:38:00.576Z,5.03
2023-04-26T22:40:30.419Z,5.07
2023-04-26T22:42:58.881Z,5.13
2023-04-26T22:45:28.451Z,4.55
2023-04-26T22:47:57.575Z,4.82
2023-04-26T22:50:27.749Z,5.10
2023-04-26T22:52:56.336Z,4.72
2023-04-26T22:55:25.045Z,4.80
2023-04-26T22:57:55.038Z,5.20
2023-04-26T23:00:25.717Z,5.43
2023-04-26T23:02:54.757Z,5.25
2023-04-26T23:05:24.209Z,4.90
2023-04-26T23:07:54.547Z,5.25
2023-04-26T23:10:25.946Z,5.30
2023-04-26T23:12:55.757Z,5.30
2023-04-26T23:15:25.858Z,5.18
2023-04-26T23:17:55.272Z,5.43
2023-04-26T23:20:24.153Z,4.90
2023-04-26T23:22:56.035Z,5.13
2023-04-26T23:25:24.417Z,5.22
2023-04-26T23:27:53.900Z,4.88
2023-04-26T23:30:22.640Z,5.20
2023-04-26T23:32:51.457Z,5.18
2023-04-26T23:35:21.179Z,5.75
2023-04-26T23:37:52.675Z,5.30
2023-04-26T23:40:22.669Z,5.13
2023-04-26T23:42:51.038Z,6.05
2023-04-26T23:45:19.833Z,5.47
2023-04-26T23:47:49.480Z,5.82
2023-04-26T23:50:18.117Z,5.22
2023-04-26T23:52:46.558Z,5.50
2023-04-26T23:55:17.203Z,5.65
2023-04-26T23:57:47.579Z,5.15
